sensor_id;sensor_type;location;lat;lon;timestamp;temperature;humidity
79489;SHT31;68949;53.176;18.088;2023-07-13T00:01:49;17.25;83.10
79489;SHT31;68949;53.176;18.088;2023-07-13T00:04:16;17.32;82.46
79489;SHT31;68949;53.176;18.088;2023-07-13T00:06:45;17.35;82.10
79489;SHT31;68949;53.176;18.088;2023-07-13T00:09:14;17.27;81.82
79489;SHT31;68949;53.176;18.088;2023-07-13T00:11:43;17.18;82.60
79489;SHT31;68949;53.176;18.088;2023-07-13T00:14:11;17.13;83.15
79489;SHT31;68949;53.176;18.088;2023-07-13T00:16:38;17.08;83.56
79489;SHT31;68949;53.176;18.088;2023-07-13T00:19:10;17.06;83.59
79489;SHT31;68949;53.176;18.088;2023-07-13T00:21:39;17.06;83.63
79489;SHT31;68949;53.176;18.088;2023-07-13T00:24:07;17.08;83.44
79489;SHT31;68949;53.176;18.088;2023-07-13T00:26:49;17.12;82.87
79489;SHT31;68949;53.176;18.088;2023-07-13T00:29:16;17.20;82.42
79489;SHT31;68949;53.176;18.088;2023-07-13T00:31:43;17.24;81.96
79489;SHT31;68949;53.176;18.088;2023-07-13T00:34:11;17.24;81.71
79489;SHT31;68949;53.176;18.088;2023-07-13T00:36:38;17.18;81.59
79489;SHT31;68949;53.176;18.088;2023-07-13T00:39:04;17.07;81.89
79489;SHT31;68949;53.176;18.088;2023-07-13T00:41:31;17.03;81.76
79489;SHT31;68949;53.176;18.088;2023-07-13T00:43:58;17.03;81.72
79489;SHT31;68949;53.176;18.088;2023-07-13T00:46:27;17.07;81.68
79489;SHT31;68949;53.176;18.088;2023-07-13T00:48:59;17.11;81.54
79489;SHT31;68949;53.176;18.088;2023-07-13T00:51:45;17.16;81.33
79489;SHT31;68949;53.176;18.088;2023-07-13T00:54:29;17.19;81.07
79489;SHT31;68949;53.176;18.088;2023-07-13T00:57:03;17.10;80.93
79489;SHT31;68949;53.176;18.088;2023-07-13T00:59:34;16.98;81.47
79489;SHT31;68949;53.176;18.088;2023-07-13T01:02:03;16.91;82.00
79489;SHT31;68949;53.176;18.088;2023-07-13T01:04:30;16.86;82.14
79489;SHT31;68949;53.176;18.088;2023-07-13T01:06:57;16.88;82.10
79489;SHT31;68949;53.176;18.088;2023-07-13T01:09:25;16.97;81.84
79489;SHT31;68949;53.176;18.088;2023-07-13T01:11:53;17.06;81.64
79489;SHT31;68949;53.176;18.088;2023-07-13T01:14:20;17.13;81.37
79489;SHT31;68949;53.176;18.088;2023-07-13T01:16:47;17.13;81.40
79489;SHT31;68949;53.176;18.088;2023-07-13T01:19:19;17.11;81.56
79489;SHT31;68949;53.176;18.088;2023-07-13T01:22:12;17.09;81.68
79489;SHT31;68949;53.176;18.088;2023-07-13T01:24:45;16.91;82.26
79489;SHT31;68949;53.176;18.088;2023-07-13T01:27:16;16.80;82.63
79489;SHT31;68949;53.176;18.088;2023-07-13T01:29:48;16.85;82.63
79489;SHT31;68949;53.176;18.088;2023-07-13T01:32:17;16.93;82.42
79489;SHT31;68949;53.176;18.088;2023-07-13T01:34:51;16.99;82.25
79489;SHT31;68949;53.176;18.088;2023-07-13T01:37:20;16.97;82.41
79489;SHT31;68949;53.176;18.088;2023-07-13T01:39:48;16.90;82.66
79489;SHT31;68949;53.176;18.088;2023-07-13T01:42:14;16.84;82.89
79489;SHT31;68949;53.176;18.088;2023-07-13T01:44:41;16.81;82.85
79489;SHT31;68949;53.176;18.088;2023-07-13T01:47:08;16.87;82.53
79489;SHT31;68949;53.176;18.088;2023-07-13T01:49:36;16.95;82.31
79489;SHT31;68949;53.176;18.088;2023-07-13T01:52:04;17.03;82.04
79489;SHT31;68949;53.176;18.088;2023-07-13T01:54:31;17.07;81.87
79489;SHT31;68949;53.176;18.088;2023-07-13T01:57:00;17.10;81.79
79489;SHT31;68949;53.176;18.088;2023-07-13T01:59:26;17.07;81.72
79489;SHT31;68949;53.176;18.088;2023-07-13T02:01:53;17.13;81.86
79489;SHT31;68949;53.176;18.088;2023-07-13T02:04:20;17.11;81.76
79489;SHT31;68949;53.176;18.088;2023-07-13T02:06:47;16.84;82.61
79489;SHT31;68949;53.176;18.088;2023-07-13T02:09:16;16.65;83.64
79489;SHT31;68949;53.176;18.088;2023-07-13T02:11:43;16.50;84.14
79489;SHT31;68949;53.176;18.088;2023-07-13T02:14:09;16.42;84.76
79489;SHT31;68949;53.176;18.088;2023-07-13T02:16:36;16.39;85.11
79489;SHT31;68949;53.176;18.088;2023-07-13T02:19:03;16.43;84.97
79489;SHT31;68949;53.176;18.088;2023-07-13T02:21:30;16.54;84.41
79489;SHT31;68949;53.176;18.088;2023-07-13T02:23:56;16.65;83.97
79489;SHT31;68949;53.176;18.088;2023-07-13T02:26:24;16.74;83.68
79489;SHT31;68949;53.176;18.088;2023-07-13T02:28:50;16.78;83.37
79489;SHT31;68949;53.176;18.088;2023-07-13T02:31:19;16.80;83.53
79489;SHT31;68949;53.176;18.088;2023-07-13T02:33:46;16.82;83.77
79489;SHT31;68949;53.176;18.088;2023-07-13T02:36:13;16.85;83.99
79489;SHT31;68949;53.176;18.088;2023-07-13T02:38:44;16.89;84.28
79489;SHT31;68949;53.176;18.088;2023-07-13T02:41:11;16.89;84.15
79489;SHT31;68949;53.176;18.088;2023-07-13T02:43:39;16.98;83.72
79489;SHT31;68949;53.176;18.088;2023-07-13T02:46:09;17.06;83.48
79489;SHT31;68949;53.176;18.088;2023-07-13T02:48:37;17.08;83.54
79489;SHT31;68949;53.176;18.088;2023-07-13T02:51:05;17.08;83.48
79489;SHT31;68949;53.176;18.088;2023-07-13T02:53:32;17.17;83.28
79489;SHT31;68949;53.176;18.088;2023-07-13T02:55:59;17.27;83.02
79489;SHT31;68949;53.176;18.088;2023-07-13T02:58:26;17.32;82.94
79489;SHT31;68949;53.176;18.088;2023-07-13T03:00:53;17.32;82.71
79489;SHT31;68949;53.176;18.088;2023-07-13T03:03:22;17.28;82.78
79489;SHT31;68949;53.176;18.088;2023-07-13T03:05:57;17.17;83.16
79489;SHT31;68949;53.176;18.088;2023-07-13T03:08:28;17.04;83.43
79489;SHT31;68949;53.176;18.088;2023-07-13T03:11:02;16.93;83.98
79489;SHT31;68949;53.176;18.088;2023-07-13T03:13:34;16.81;84.30
79489;SHT31;68949;53.176;18.088;2023-07-13T03:16:03;16.69;84.68
79489;SHT31;68949;53.176;18.088;2023-07-13T03:18:30;16.59;84.86
79489;SHT31;68949;53.176;18.088;2023-07-13T03:21:00;16.55;84.92
79489;SHT31;68949;53.176;18.088;2023-07-13T03:23:27;16.66;84.72
79489;SHT31;68949;53.176;18.088;2023-07-13T03:28:36;16.62;84.58
79489;SHT31;68949;53.176;18.088;2023-07-13T03:31:05;16.60;84.68
79489;SHT31;68949;53.176;18.088;2023-07-13T03:33:36;16.57;84.77
79489;SHT31;68949;53.176;18.088;2023-07-13T03:36:04;16.52;84.91
79489;SHT31;68949;53.176;18.088;2023-07-13T03:38:34;16.50;84.86
79489;SHT31;68949;53.176;18.088;2023-07-13T03:41:02;16.48;85.07
79489;SHT31;68949;53.176;18.088;2023-07-13T03:43:29;16.53;84.93
79489;SHT31;68949;53.176;18.088;2023-07-13T03:45:56;16.54;84.96
79489;SHT31;68949;53.176;18.088;2023-07-13T03:48:22;16.53;85.05
79489;SHT31;68949;53.176;18.088;2023-07-13T03:50:50;16.52;85.15
79489;SHT31;68949;53.176;18.088;2023-07-13T03:53:17;16.49;85.35
79489;SHT31;68949;53.176;18.088;2023-07-13T03:55:45;16.49;85.44
79489;SHT31;68949;53.176;18.088;2023-07-13T03:58:29;16.51;85.42
79489;SHT31;68949;53.176;18.088;2023-07-13T04:01:05;16.54;85.44
79489;SHT31;68949;53.176;18.088;2023-07-13T04:03:35;16.65;85.26
79489;SHT31;68949;53.176;18.088;2023-07-13T04:06:03;16.81;84.87
79489;SHT31;68949;53.176;18.088;2023-07-13T04:08:38;16.97;84.62
79489;SHT31;68949;53.176;18.088;2023-07-13T04:11:05;17.10;84.50
79489;SHT31;68949;53.176;18.088;2023-07-13T04:13:32;17.16;84.19
79489;SHT31;68949;53.176;18.088;2023-07-13T04:15:59;17.11;84.35
79489;SHT31;68949;53.176;18.088;2023-07-13T04:18:26;17.08;84.41
79489;SHT31;68949;53.176;18.088;2023-07-13T04:20:52;17.09;84.49
79489;SHT31;68949;53.176;18.088;2023-07-13T04:23:19;17.26;84.40
79489;SHT31;68949;53.176;18.088;2023-07-13T04:25:46;17.46;83.97
79489;SHT31;68949;53.176;18.088;2023-07-13T04:28:16;17.64;83.48
79489;SHT31;68949;53.176;18.088;2023-07-13T04:30:44;17.67;83.42
79489;SHT31;68949;53.176;18.088;2023-07-13T04:33:10;18.33;83.01
79489;SHT31;68949;53.176;18.088;2023-07-13T04:35:37;19.11;81.71
79489;SHT31;68949;53.176;18.088;2023-07-13T04:38:04;19.61;80.08
79489;SHT31;68949;53.176;18.088;2023-07-13T04:40:32;19.68;79.58
79489;SHT31;68949;53.176;18.088;2023-07-13T04:42:59;19.38;79.60
79489;SHT31;68949;53.176;18.088;2023-07-13T04:45:25;19.30;80.22
79489;SHT31;68949;53.176;18.088;2023-07-13T04:47:52;19.28;80.36
79489;SHT31;68949;53.176;18.088;2023-07-13T04:50:19;19.41;80.29
79489;SHT31;68949;53.176;18.088;2023-07-13T04:52:50;20.17;79.04
79489;SHT31;68949;53.176;18.088;2023-07-13T04:55:17;20.80;77.66
79489;SHT31;68949;53.176;18.088;2023-07-13T04:57:46;20.90;77.19
79489;SHT31;68949;53.176;18.088;2023-07-13T05:00:13;20.85;77.42
79489;SHT31;68949;53.176;18.088;2023-07-13T05:02:43;20.68;77.65
79489;SHT31;68949;53.176;18.088;2023-07-13T05:05:12;20.77;77.12
79489;SHT31;68949;53.176;18.088;2023-07-13T05:07:39;20.75;77.00
79489;SHT31;68949;53.176;18.088;2023-07-13T05:10:06;20.65;76.80
79489;SHT31;68949;53.176;18.088;2023-07-13T05:12:35;21.06;76.93
79489;SHT31;68949;53.176;18.088;2023-07-13T05:15:02;21.55;75.60
79489;SHT31;68949;53.176;18.088;2023-07-13T05:17:30;21.30;75.73
79489;SHT31;68949;53.176;18.088;2023-07-13T05:19:57;21.22;75.77
79489;SHT31;68949;53.176;18.088;2023-07-13T05:22:24;21.82;74.99
79489;SHT31;68949;53.176;18.088;2023-07-13T05:24:50;22.49;74.27
79489;SHT31;68949;53.176;18.088;2023-07-13T05:27:17;22.76;73.13
79489;SHT31;68949;53.176;18.088;2023-07-13T05:29:44;22.69;73.39
79489;SHT31;68949;53.176;18.088;2023-07-13T05:32:10;22.51;72.73
79489;SHT31;68949;53.176;18.088;2023-07-13T05:34:37;22.28;72.00
79489;SHT31;68949;53.176;18.088;2023-07-13T05:37:04;21.99;72.04
79489;SHT31;68949;53.176;18.088;2023-07-13T05:39:31;21.73;71.87
79489;SHT31;68949;53.176;18.088;2023-07-13T05:41:57;22.09;71.62
79489;SHT31;68949;53.176;18.088;2023-07-13T05:44:24;22.13;70.47
79489;SHT31;68949;53.176;18.088;2023-07-13T05:46:51;22.02;71.00
79489;SHT31;68949;53.176;18.088;2023-07-13T05:49:17;22.27;71.19
79489;SHT31;68949;53.176;18.088;2023-07-13T05:51:44;22.26;70.74
79489;SHT31;68949;53.176;18.088;2023-07-13T05:54:11;22.40;70.67
79489;SHT31;68949;53.176;18.088;2023-07-13T05:56:37;22.81;70.14
79489;SHT31;68949;53.176;18.088;2023-07-13T05:59:04;23.10;69.65
79489;SHT31;68949;53.176;18.088;2023-07-13T06:01:31;23.60;68.89
79489;SHT31;68949;53.176;18.088;2023-07-13T06:03:58;23.90;66.72
79489;SHT31;68949;53.176;18.088;2023-07-13T06:06:25;23.84;67.41
79489;SHT31;68949;53.176;18.088;2023-07-13T06:08:52;23.71;67.86
79489;SHT31;68949;53.176;18.088;2023-07-13T06:11:19;23.33;66.86
79489;SHT31;68949;53.176;18.088;2023-07-13T06:13:49;23.13;66.39
79489;SHT31;68949;53.176;18.088;2023-07-13T06:16:17;23.10;66.52
79489;SHT31;68949;53.176;18.088;2023-07-13T06:18:44;23.04;67.20
79489;SHT31;68949;53.176;18.088;2023-07-13T06:21:13;23.11;66.17
79489;SHT31;68949;53.176;18.088;2023-07-13T06:23:49;23.19;66.57
79489;SHT31;68949;53.176;18.088;2023-07-13T06:26:18;23.32;66.00
79489;SHT31;68949;53.176;18.088;2023-07-13T06:28:46;23.64;65.52
79489;SHT31;68949;53.176;18.088;2023-07-13T06:31:14;23.61;65.06
79489;SHT31;68949;53.176;18.088;2023-07-13T06:33:41;23.61;64.93
79489;SHT31;68949;53.176;18.088;2023-07-13T06:36:08;23.88;65.00
79489;SHT31;68949;53.176;18.088;2023-07-13T06:38:35;23.85;64.30
79489;SHT31;68949;53.176;18.088;2023-07-13T06:41:03;23.68;64.14
79489;SHT31;68949;53.176;18.088;2023-07-13T06:43:33;23.66;64.13
79489;SHT31;68949;53.176;18.088;2023-07-13T06:46:00;23.71;64.11
79489;SHT31;68949;53.176;18.088;2023-07-13T06:48:27;23.80;63.44
79489;SHT31;68949;53.176;18.088;2023-07-13T06:50:55;23.93;63.03
79489;SHT31;68949;53.176;18.088;2023-07-13T06:53:22;23.68;63.57
79489;SHT31;68949;53.176;18.088;2023-07-13T06:55:49;23.44;63.74
79489;SHT31;68949;53.176;18.088;2023-07-13T06:58:17;23.48;63.69
79489;SHT31;68949;53.176;18.088;2023-07-13T07:00:45;23.44;63.72
79489;SHT31;68949;53.176;18.088;2023-07-13T07:03:12;23.51;64.01
79489;SHT31;68949;53.176;18.088;2023-07-13T07:05:39;23.65;63.12
79489;SHT31;68949;53.176;18.088;2023-07-13T07:08:06;23.73;62.73
79489;SHT31;68949;53.176;18.088;2023-07-13T07:10:34;23.60;62.34
79489;SHT31;68949;53.176;18.088;2023-07-13T07:13:03;23.46;63.04
79489;SHT31;68949;53.176;18.088;2023-07-13T07:15:30;23.47;63.50
79489;SHT31;68949;53.176;18.088;2023-07-13T07:17:57;23.50;62.67
79489;SHT31;68949;53.176;18.088;2023-07-13T07:20:24;23.56;62.90
79489;SHT31;68949;53.176;18.088;2023-07-13T07:22:50;23.60;62.68
79489;SHT31;68949;53.176;18.088;2023-07-13T07:25:17;23.67;62.23
79489;SHT31;68949;53.176;18.088;2023-07-13T07:27:44;23.85;62.52
79489;SHT31;68949;53.176;18.088;2023-07-13T07:30:12;24.10;62.67
79489;SHT31;68949;53.176;18.088;2023-07-13T07:32:39;24.39;61.45
79489;SHT31;68949;53.176;18.088;2023-07-13T07:35:06;24.61;59.77
79489;SHT31;68949;53.176;18.088;2023-07-13T07:37:33;24.43;59.72
79489;SHT31;68949;53.176;18.088;2023-07-13T07:40:00;24.22;59.75
79489;SHT31;68949;53.176;18.088;2023-07-13T07:42:26;24.20;59.99
79489;SHT31;68949;53.176;18.088;2023-07-13T07:44:53;24.48;60.35
79489;SHT31;68949;53.176;18.088;2023-07-13T07:47:20;24.87;59.57
79489;SHT31;68949;53.176;18.088;2023-07-13T07:49:46;25.19;58.46
79489;SHT31;68949;53.176;18.088;2023-07-13T07:52:13;25.31;57.90
79489;SHT31;68949;53.176;18.088;2023-07-13T07:54:40;25.32;57.90
79489;SHT31;68949;53.176;18.088;2023-07-13T07:57:06;25.24;58.23
79489;SHT31;68949;53.176;18.088;2023-07-13T07:59:34;25.23;57.97
79489;SHT31;68949;53.176;18.088;2023-07-13T08:02:03;25.12;57.18
79489;SHT31;68949;53.176;18.088;2023-07-13T08:04:30;25.16;57.20
79489;SHT31;68949;53.176;18.088;2023-07-13T08:06:57;25.27;57.64
79489;SHT31;68949;53.176;18.088;2023-07-13T08:09:24;25.17;56.17
79489;SHT31;68949;53.176;18.088;2023-07-13T08:11:50;25.01;56.18
79489;SHT31;68949;53.176;18.088;2023-07-13T08:14:18;25.06;56.47
79489;SHT31;68949;53.176;18.088;2023-07-13T08:16:45;25.25;56.59
79489;SHT31;68949;53.176;18.088;2023-07-13T08:19:12;25.49;56.25
79489;SHT31;68949;53.176;18.088;2023-07-13T08:21:38;25.63;55.78
79489;SHT31;68949;53.176;18.088;2023-07-13T08:24:05;25.76;55.73
79489;SHT31;68949;53.176;18.088;2023-07-13T08:26:32;25.92;55.70
79489;SHT31;68949;53.176;18.088;2023-07-13T08:28:59;26.12;55.10
79489;SHT31;68949;53.176;18.088;2023-07-13T08:31:26;26.28;55.22
79489;SHT31;68949;53.176;18.088;2023-07-13T08:33:53;26.34;55.15
79489;SHT31;68949;53.176;18.088;2023-07-13T08:36:19;26.53;54.91
79489;SHT31;68949;53.176;18.088;2023-07-13T08:38:46;26.67;53.77
79489;SHT31;68949;53.176;18.088;2023-07-13T08:41:14;26.57;53.71
79489;SHT31;68949;53.176;18.088;2023-07-13T08:43:45;26.25;53.61
79489;SHT31;68949;53.176;18.088;2023-07-13T08:46:19;26.10;53.26
79489;SHT31;68949;53.176;18.088;2023-07-13T08:48:56;26.16;53.82
79489;SHT31;68949;53.176;18.088;2023-07-13T08:51:29;26.28;53.46
79489;SHT31;68949;53.176;18.088;2023-07-13T08:54:10;25.86;53.00
79489;SHT31;68949;53.176;18.088;2023-07-13T08:57:08;25.38;52.79
79489;SHT31;68949;53.176;18.088;2023-07-13T08:59:42;24.87;53.45
79489;SHT31;68949;53.176;18.088;2023-07-13T09:04:54;24.38;54.67
79489;SHT31;68949;53.176;18.088;2023-07-13T09:07:44;24.13;54.51
79489;SHT31;68949;53.176;18.088;2023-07-13T09:10:50;23.91;55.17
79489;SHT31;68949;53.176;18.088;2023-07-13T09:16:09;23.76;54.79
79489;SHT31;68949;53.176;18.088;2023-07-13T09:18:44;23.82;55.00
79489;SHT31;68949;53.176;18.088;2023-07-13T09:21:28;24.03;54.88
79489;SHT31;68949;53.176;18.088;2023-07-13T09:24:03;24.35;53.99
79489;SHT31;68949;53.176;18.088;2023-07-13T09:26:54;24.67;53.49
79489;SHT31;68949;53.176;18.088;2023-07-13T09:29:32;25.00;53.06
79489;SHT31;68949;53.176;18.088;2023-07-13T09:32:01;25.39;52.85
79489;SHT31;68949;53.176;18.088;2023-07-13T09:34:33;25.50;51.67
79489;SHT31;68949;53.176;18.088;2023-07-13T09:37:00;25.55;51.49
79489;SHT31;68949;53.176;18.088;2023-07-13T09:39:27;25.56;50.27
79489;SHT31;68949;53.176;18.088;2023-07-13T09:45:01;25.69;50.03
79489;SHT31;68949;53.176;18.088;2023-07-13T09:47:30;25.76;50.01
79489;SHT31;68949;53.176;18.088;2023-07-13T09:50:00;25.84;49.84
79489;SHT31;68949;53.176;18.088;2023-07-13T09:52:39;26.06;49.77
79489;SHT31;68949;53.176;18.088;2023-07-13T09:55:29;26.44;49.86
79489;SHT31;68949;53.176;18.088;2023-07-13T09:58:15;26.59;48.93
79489;SHT31;68949;53.176;18.088;2023-07-13T10:01:08;26.52;48.45
79489;SHT31;68949;53.176;18.088;2023-07-13T10:03:35;26.73;48.95
79489;SHT31;68949;53.176;18.088;2023-07-13T10:06:15;26.84;48.07
79489;SHT31;68949;53.176;18.088;2023-07-13T10:08:46;26.93;48.10
79489;SHT31;68949;53.176;18.088;2023-07-13T10:11:21;26.97;47.46
79489;SHT31;68949;53.176;18.088;2023-07-13T10:13:57;26.84;47.66
79489;SHT31;68949;53.176;18.088;2023-07-13T10:16:29;26.68;47.19
79489;SHT31;68949;53.176;18.088;2023-07-13T10:19:00;26.72;47.59
79489;SHT31;68949;53.176;18.088;2023-07-13T10:21:50;26.91;47.53
79489;SHT31;68949;53.176;18.088;2023-07-13T10:24:33;26.55;46.39
79489;SHT31;68949;53.176;18.088;2023-07-13T10:32:51;25.72;47.58
79489;SHT31;68949;53.176;18.088;2023-07-13T10:35:19;25.73;47.86
79489;SHT31;68949;53.176;18.088;2023-07-13T10:40:55;25.83;48.22
79489;SHT31;68949;53.176;18.088;2023-07-13T10:43:37;25.76;47.98
79489;SHT31;68949;53.176;18.088;2023-07-13T10:46:12;25.67;47.81
79489;SHT31;68949;53.176;18.088;2023-07-13T10:48:44;25.73;47.26
79489;SHT31;68949;53.176;18.088;2023-07-13T10:51:17;25.78;46.83
79489;SHT31;68949;53.176;18.088;2023-07-13T10:54:10;25.77;46.85
79489;SHT31;68949;53.176;18.088;2023-07-13T10:56:43;25.70;46.35
79489;SHT31;68949;53.176;18.088;2023-07-13T10:59:16;25.73;46.28
79489;SHT31;68949;53.176;18.088;2023-07-13T11:07:33;26.30;45.68
79489;SHT31;68949;53.176;18.088;2023-07-13T11:14:25;26.60;45.44
79489;SHT31;68949;53.176;18.088;2023-07-13T11:21:30;26.92;45.06
79489;SHT31;68949;53.176;18.088;2023-07-13T11:29:54;26.94;43.19
79489;SHT31;68949;53.176;18.088;2023-07-13T11:31:59;27.14;43.22
79489;SHT31;68949;53.176;18.088;2023-07-13T11:34:47;26.91;42.43
79489;SHT31;68949;53.176;18.088;2023-07-13T11:37:15;26.55;42.75
79489;SHT31;68949;53.176;18.088;2023-07-13T11:39:45;26.32;42.80
79489;SHT31;68949;53.176;18.088;2023-07-13T11:42:15;26.16;42.48
79489;SHT31;68949;53.176;18.088;2023-07-13T11:44:49;25.99;43.05
79489;SHT31;68949;53.176;18.088;2023-07-13T11:47:20;25.89;42.17
79489;SHT31;68949;53.176;18.088;2023-07-13T11:49:50;25.73;41.06
79489;SHT31;68949;53.176;18.088;2023-07-13T11:52:28;25.61;41.54
79489;SHT31;68949;53.176;18.088;2023-07-13T11:55:05;25.60;42.56
79489;SHT31;68949;53.176;18.088;2023-07-13T11:57:47;25.57;42.81
79489;SHT31;68949;53.176;18.088;2023-07-13T12:00:25;25.61;46.69
79489;SHT31;68949;53.176;18.088;2023-07-13T12:03:00;25.62;49.16
79489;SHT31;68949;53.176;18.088;2023-07-13T12:05:31;25.55;50.02
79489;SHT31;68949;53.176;18.088;2023-07-13T12:07:58;25.50;50.77
79489;SHT31;68949;53.176;18.088;2023-07-13T12:13:03;25.53;51.32
79489;SHT31;68949;53.176;18.088;2023-07-13T12:15:40;25.47;51.76
79489;SHT31;68949;53.176;18.088;2023-07-13T12:18:21;25.44;51.88
79489;SHT31;68949;53.176;18.088;2023-07-13T12:20:55;25.42;52.03
79489;SHT31;68949;53.176;18.088;2023-07-13T12:23:28;25.42;51.87
79489;SHT31;68949;53.176;18.088;2023-07-13T12:25:56;25.63;52.03
79489;SHT31;68949;53.176;18.088;2023-07-13T12:28:38;26.10;52.09
79489;SHT31;68949;53.176;18.088;2023-07-13T12:36:56;27.05;47.82
79489;SHT31;68949;53.176;18.088;2023-07-13T12:42:18;27.52;43.86
79489;SHT31;68949;53.176;18.088;2023-07-13T12:44:59;27.70;42.44
79489;SHT31;68949;53.176;18.088;2023-07-13T12:47:40;27.89;42.08
79489;SHT31;68949;53.176;18.088;2023-07-13T12:50:12;27.89;41.60
79489;SHT31;68949;53.176;18.088;2023-07-13T12:52:49;28.03;41.51
79489;SHT31;68949;53.176;18.088;2023-07-13T12:55:20;28.07;40.66
79489;SHT31;68949;53.176;18.088;2023-07-13T12:57:55;28.06;41.46
79489;SHT31;68949;53.176;18.088;2023-07-13T13:03:13;27.71;41.39
79489;SHT31;68949;53.176;18.088;2023-07-13T13:05:56;27.46;41.76
79489;SHT31;68949;53.176;18.088;2023-07-13T13:08:30;27.31;40.84
79489;SHT31;68949;53.176;18.088;2023-07-13T13:10:58;27.24;40.75
79489;SHT31;68949;53.176;18.088;2023-07-13T13:13:25;27.10;39.88
79489;SHT31;68949;53.176;18.088;2023-07-13T13:15:52;26.97;40.01
79489;SHT31;68949;53.176;18.088;2023-07-13T13:18:20;26.93;40.08
79489;SHT31;68949;53.176;18.088;2023-07-13T13:20:50;26.87;40.19
79489;SHT31;68949;53.176;18.088;2023-07-13T13:23:19;26.87;40.28
79489;SHT31;68949;53.176;18.088;2023-07-13T13:25:47;26.91;40.79
79489;SHT31;68949;53.176;18.088;2023-07-13T13:28:18;26.89;40.47
79489;SHT31;68949;53.176;18.088;2023-07-13T13:30:48;26.93;41.02
79489;SHT31;68949;53.176;18.088;2023-07-13T13:33:18;26.96;40.98
79489;SHT31;68949;53.176;18.088;2023-07-13T13:35:48;27.00;40.93
79489;SHT31;68949;53.176;18.088;2023-07-13T13:38:16;27.03;43.87
79489;SHT31;68949;53.176;18.088;2023-07-13T13:40:47;26.76;46.29
79489;SHT31;68949;53.176;18.088;2023-07-13T13:43:15;26.37;47.39
79489;SHT31;68949;53.176;18.088;2023-07-13T13:45:53;26.16;47.73
79489;SHT31;68949;53.176;18.088;2023-07-13T13:48:33;26.00;48.10
79489;SHT31;68949;53.176;18.088;2023-07-13T13:51:09;25.99;48.74
79489;SHT31;68949;53.176;18.088;2023-07-13T13:53:45;26.33;49.00
79489;SHT31;68949;53.176;18.088;2023-07-13T13:56:13;26.42;49.35
79489;SHT31;68949;53.176;18.088;2023-07-13T13:58:41;26.58;49.96
79489;SHT31;68949;53.176;18.088;2023-07-13T14:01:18;26.83;49.28
79489;SHT31;68949;53.176;18.088;2023-07-13T14:03:49;27.06;49.29
79489;SHT31;68949;53.176;18.088;2023-07-13T14:06:20;27.32;48.96
79489;SHT31;68949;53.176;18.088;2023-07-13T14:08:47;27.59;48.64
79489;SHT31;68949;53.176;18.088;2023-07-13T14:11:14;27.79;47.05
79489;SHT31;68949;53.176;18.088;2023-07-13T14:13:47;27.85;47.44
79489;SHT31;68949;53.176;18.088;2023-07-13T14:16:18;27.97;47.69
79489;SHT31;68949;53.176;18.088;2023-07-13T14:18:47;28.10;47.43
79489;SHT31;68949;53.176;18.088;2023-07-13T14:21:20;28.14;46.93
79489;SHT31;68949;53.176;18.088;2023-07-13T14:23:48;28.18;46.73
79489;SHT31;68949;53.176;18.088;2023-07-13T14:26:17;28.12;46.26
79489;SHT31;68949;53.176;18.088;2023-07-13T14:28:50;28.07;46.57
79489;SHT31;68949;53.176;18.088;2023-07-13T14:31:23;28.00;47.01
79489;SHT31;68949;53.176;18.088;2023-07-13T14:33:52;28.06;47.15
79489;SHT31;68949;53.176;18.088;2023-07-13T14:38:56;28.14;45.64
79489;SHT31;68949;53.176;18.088;2023-07-13T14:41:24;27.89;45.90
79489;SHT31;68949;53.176;18.088;2023-07-13T14:43:52;27.53;45.94
79489;SHT31;68949;53.176;18.088;2023-07-13T14:46:29;27.35;41.38
79489;SHT31;68949;53.176;18.088;2023-07-13T14:49:04;27.40;39.23
79489;SHT31;68949;53.176;18.088;2023-07-13T14:51:41;27.53;38.44
79489;SHT31;68949;53.176;18.088;2023-07-13T14:54:08;27.58;38.77
79489;SHT31;68949;53.176;18.088;2023-07-13T14:56:36;27.60;37.91
79489;SHT31;68949;53.176;18.088;2023-07-13T14:59:02;27.60;36.75
79489;SHT31;68949;53.176;18.088;2023-07-13T15:01:29;27.60;36.33
79489;SHT31;68949;53.176;18.088;2023-07-13T15:03:56;27.65;36.69
79489;SHT31;68949;53.176;18.088;2023-07-13T15:06:24;27.84;36.62
79489;SHT31;68949;53.176;18.088;2023-07-13T15:08:51;27.95;36.57
79489;SHT31;68949;53.176;18.088;2023-07-13T15:11:18;28.00;36.59
79489;SHT31;68949;53.176;18.088;2023-07-13T15:13:44;27.92;36.23
79489;SHT31;68949;53.176;18.088;2023-07-13T15:16:15;27.94;35.53
79489;SHT31;68949;53.176;18.088;2023-07-13T15:18:50;27.92;35.04
79489;SHT31;68949;53.176;18.088;2023-07-13T15:21:20;27.85;33.88
79489;SHT31;68949;53.176;18.088;2023-07-13T15:23:50;27.84;34.83
79489;SHT31;68949;53.176;18.088;2023-07-13T15:26:18;27.89;34.67
79489;SHT31;68949;53.176;18.088;2023-07-13T15:28:46;27.92;34.65
79489;SHT31;68949;53.176;18.088;2023-07-13T15:33:52;27.95;34.17
79489;SHT31;68949;53.176;18.088;2023-07-13T15:36:21;27.96;34.40
79489;SHT31;68949;53.176;18.088;2023-07-13T15:38:52;28.00;34.60
79489;SHT31;68949;53.176;18.088;2023-07-13T15:41:25;28.01;33.39
79489;SHT31;68949;53.176;18.088;2023-07-13T15:43:55;27.99;33.46
79489;SHT31;68949;53.176;18.088;2023-07-13T15:46:25;28.01;33.85
79489;SHT31;68949;53.176;18.088;2023-07-13T15:48:55;28.02;33.34
79489;SHT31;68949;53.176;18.088;2023-07-13T15:51:29;28.07;33.50
79489;SHT31;68949;53.176;18.088;2023-07-13T15:54:01;28.05;33.38
79489;SHT31;68949;53.176;18.088;2023-07-13T15:56:34;27.97;33.69
79489;SHT31;68949;53.176;18.088;2023-07-13T15:59:08;27.97;34.18
79489;SHT31;68949;53.176;18.088;2023-07-13T16:01:40;27.93;33.81
79489;SHT31;68949;53.176;18.088;2023-07-13T16:04:08;27.77;33.35
79489;SHT31;68949;53.176;18.088;2023-07-13T16:06:35;27.65;33.58
79489;SHT31;68949;53.176;18.088;2023-07-13T16:09:06;27.64;33.54
79489;SHT31;68949;53.176;18.088;2023-07-13T16:11:38;27.61;33.97
79489;SHT31;68949;53.176;18.088;2023-07-13T16:14:06;27.64;33.83
79489;SHT31;68949;53.176;18.088;2023-07-13T16:16:34;27.64;34.06
79489;SHT31;68949;53.176;18.088;2023-07-13T16:19:02;27.74;34.34
79489;SHT31;68949;53.176;18.088;2023-07-13T16:21:40;27.79;34.07
79489;SHT31;68949;53.176;18.088;2023-07-13T16:24:19;27.71;33.47
79489;SHT31;68949;53.176;18.088;2023-07-13T16:26:51;27.58;33.59
79489;SHT31;68949;53.176;18.088;2023-07-13T16:29:23;27.57;34.05
79489;SHT31;68949;53.176;18.088;2023-07-13T16:32:00;27.58;33.47
79489;SHT31;68949;53.176;18.088;2023-07-13T16:34:29;27.53;32.80